sensor_id;sensor_type;location;lat;lon;timestamp;P1;durP1;ratioP1;P2;durP2;ratioP2
25609;SDS011;13479;49.044;8.716;2023-04-10T04:01:23;13.77;;;7.17;;
25609;SDS011;13479;49.044;8.716;2023-04-10T04:03:48;13.27;;;6.40;;
25609;SDS011;13479;49.044;8.716;2023-04-10T04:06:14;12.13;;;6.87;;
25609;SDS011;13479;49.044;8.716;2023-04-10T04:08:39;10.73;;;3.97;;
25609;SDS011;13479;49.044;8.716;2023-04-10T04:11:05;12.20;;;5.07;;
25609;SDS011;13479;49.044;8.716;2023-04-10T04:13:30;12.67;;;6.03;;
25609;SDS011;13479;49.044;8.716;2023-04-10T04:15:56;8.63;;;4.03;;
25609;SDS011;13479;49.044;8.716;2023-04-10T04:18:21;11.87;;;5.97;;
25609;SDS011;13479;49.044;8.716;2023-04-10T04:20:46;11.47;;;5.60;;
25609;SDS011;13479;49.044;8.716;2023-04-10T04:23:11;9.90;;;5.00;;
25609;SDS011;13479;49.044;8.716;2023-04-10T04:25:37;6.50;;;2.73;;
25609;SDS011;13479;49.044;8.716;2023-04-10T04:28:02;10.80;;;4.43;;
25609;SDS011;13479;49.044;8.716;2023-04-10T04:30:27;8.77;;;4.32;;
25609;SDS011;13479;49.044;8.716;2023-04-10T04:32:52;9.73;;;5.77;;
25609;SDS011;13479;49.044;8.716;2023-04-10T04:35:18;8.57;;;3.80;;
25609;SDS011;13479;49.044;8.716;2023-04-10T04:37:43;5.63;;;2.60;;
25609;SDS011;13479;49.044;8.716;2023-04-10T04:40:08;8.87;;;4.47;;
25609;SDS011;13479;49.044;8.716;2023-04-10T04:42:34;11.37;;;5.83;;
25609;SDS011;13479;49.044;8.716;2023-04-10T04:44:59;11.87;;;6.53;;
25609;SDS011;13479;49.044;8.716;2023-04-10T04:47:25;6.60;;;3.07;;
25609;SDS011;13479;49.044;8.716;2023-04-10T04:49:50;10.73;;;4.43;;
25609;SDS011;13479;49.044;8.716;2023-04-10T04:52:15;11.90;;;6.60;;
25609;SDS011;13479;49.044;8.716;2023-04-10T04:54:40;9.43;;;5.20;;
25609;SDS011;13479;49.044;8.716;2023-04-10T04:57:06;11.37;;;6.43;;
25609;SDS011;13479;49.044;8.716;2023-04-10T04:59:31;7.93;;;4.37;;
25609;SDS011;13479;49.044;8.716;2023-04-10T05:01:56;12.30;;;6.80;;
25609;SDS011;13479;49.044;8.716;2023-04-10T05:04:22;11.43;;;6.70;;
25609;SDS011;13479;49.044;8.716;2023-04-10T05:06:47;8.67;;;4.17;;
25609;SDS011;13479;49.044;8.716;2023-04-10T05:09:12;12.30;;;6.53;;
25609;SDS011;13479;49.044;8.716;2023-04-10T05:11:38;7.95;;;4.13;;
25609;SDS011;13479;49.044;8.716;2023-04-10T05:14:03;10.80;;;5.83;;
25609;SDS011;13479;49.044;8.716;2023-04-10T05:16:28;11.77;;;6.30;;
25609;SDS011;13479;49.044;8.716;2023-04-10T05:18:54;11.80;;;5.63;;
25609;SDS011;13479;49.044;8.716;2023-04-10T05:21:19;5.87;;;2.77;;
25609;SDS011;13479;49.044;8.716;2023-04-10T05:23:45;12.27;;;6.73;;
25609;SDS011;13479;49.044;8.716;2023-04-10T05:26:10;10.03;;;4.87;;
25609;SDS011;13479;49.044;8.716;2023-04-10T05:28:35;10.87;;;4.73;;
25609;SDS011;13479;49.044;8.716;2023-04-10T05:31:00;12.40;;;6.10;;
25609;SDS011;13479;49.044;8.716;2023-04-10T05:33:26;11.83;;;4.63;;
25609;SDS011;13479;49.044;8.716;2023-04-10T05:35:51;14.43;;;8.63;;
25609;SDS011;13479;49.044;8.716;2023-04-10T05:38:17;13.30;;;8.00;;
25609;SDS011;13479;49.044;8.716;2023-04-10T05:40:45;18.73;;;11.33;;
25609;SDS011;13479;49.044;8.716;2023-04-10T05:43:11;8.00;;;5.53;;
25609;SDS011;13479;49.044;8.716;2023-04-10T05:45:37;9.77;;;6.10;;
25609;SDS011;13479;49.044;8.716;2023-04-10T05:48:02;12.95;;;6.72;;
25609;SDS011;13479;49.044;8.716;2023-04-10T05:50:28;10.40;;;5.80;;
25609;SDS011;13479;49.044;8.716;2023-04-10T05:52:53;13.40;;;8.30;;
25609;SDS011;13479;49.044;8.716;2023-04-10T05:55:19;7.60;;;4.55;;
25609;SDS011;13479;49.044;8.716;2023-04-10T05:57:44;8.55;;;4.45;;
25609;SDS011;13479;49.044;8.716;2023-04-10T06:00:09;8.02;;;4.32;;
25609;SDS011;13479;49.044;8.716;2023-04-10T06:02:35;13.35;;;6.93;;
25609;SDS011;13479;49.044;8.716;2023-04-10T06:05:01;10.93;;;6.03;;
25609;SDS011;13479;49.044;8.716;2023-04-10T06:07:26;11.38;;;5.57;;
25609;SDS011;13479;49.044;8.716;2023-04-10T06:09:52;10.93;;;6.43;;
25609;SDS011;13479;49.044;8.716;2023-04-10T06:12:17;11.77;;;6.38;;
25609;SDS011;13479;49.044;8.716;2023-04-10T06:14:43;7.28;;;4.22;;
25609;SDS011;13479;49.044;8.716;2023-04-10T06:17:08;7.20;;;4.40;;
25609;SDS011;13479;49.044;8.716;2023-04-10T06:19:33;8.02;;;4.10;;
25609;SDS011;13479;49.044;8.716;2023-04-10T06:21:59;12.05;;;4.70;;
25609;SDS011;13479;49.044;8.716;2023-04-10T06:24:24;8.40;;;5.45;;
25609;SDS011;13479;49.044;8.716;2023-04-10T06:26:49;10.73;;;7.18;;
25609;SDS011;13479;49.044;8.716;2023-04-10T06:29:15;10.15;;;5.93;;
25609;SDS011;13479;49.044;8.716;2023-04-10T06:31:40;8.30;;;5.22;;
25609;SDS011;13479;49.044;8.716;2023-04-10T06:34:05;9.60;;;5.93;;
25609;SDS011;13479;49.044;8.716;2023-04-10T06:36:31;8.27;;;4.50;;
25609;SDS011;13479;49.044;8.716;2023-04-10T06:38:56;11.48;;;5.85;;
25609;SDS011;13479;49.044;8.716;2023-04-10T06:41:22;10.82;;;7.35;;
25609;SDS011;13479;49.044;8.716;2023-04-10T06:43:47;8.52;;;5.15;;
25609;SDS011;13479;49.044;8.716;2023-04-10T06:46:12;9.48;;;4.43;;
25609;SDS011;13479;49.044;8.716;2023-04-10T06:48:39;11.15;;;6.28;;
25609;SDS011;13479;49.044;8.716;2023-04-10T06:51:05;7.70;;;4.40;;
25609;SDS011;13479;49.044;8.716;2023-04-10T06:53:31;5.47;;;3.13;;
25609;SDS011;13479;49.044;8.716;2023-04-10T06:55:56;8.93;;;6.07;;
25609;SDS011;13479;49.044;8.716;2023-04-10T06:58:21;7.55;;;4.63;;
25609;SDS011;13479;49.044;8.716;2023-04-10T07:00:48;7.18;;;3.40;;
25609;SDS011;13479;49.044;8.716;2023-04-10T07:03:13;8.13;;;5.10;;
25609;SDS011;13479;49.044;8.716;2023-04-10T07:05:39;8.65;;;6.18;;
25609;SDS011;13479;49.044;8.716;2023-04-10T07:08:04;7.22;;;4.50;;
25609;SDS011;13479;49.044;8.716;2023-04-10T07:10:29;8.23;;;5.68;;
25609;SDS011;13479;49.044;8.716;2023-04-10T07:12:55;5.97;;;4.38;;
25609;SDS011;13479;49.044;8.716;2023-04-10T07:15:22;6.75;;;4.13;;
25609;SDS011;13479;49.044;8.716;2023-04-10T07:17:48;7.35;;;3.67;;
25609;SDS011;13479;49.044;8.716;2023-04-10T07:20:13;6.13;;;3.80;;
25609;SDS011;13479;49.044;8.716;2023-04-10T07:22:38;7.97;;;5.55;;
25609;SDS011;13479;49.044;8.716;2023-04-10T07:25:04;6.57;;;5.07;;
25609;SDS011;13479;49.044;8.716;2023-04-10T07:27:31;9.07;;;4.50;;
25609;SDS011;13479;49.044;8.716;2023-04-10T07:29:56;7.70;;;5.65;;
25609;SDS011;13479;49.044;8.716;2023-04-10T07:32:22;4.28;;;2.70;;
25609;SDS011;13479;49.044;8.716;2023-04-10T07:34:47;6.85;;;4.40;;
25609;SDS011;13479;49.044;8.716;2023-04-10T07:37:12;3.83;;;2.25;;
25609;SDS011;13479;49.044;8.716;2023-04-10T07:39:38;5.78;;;4.47;;
25609;SDS011;13479;49.044;8.716;2023-04-10T07:42:03;7.03;;;4.32;;
25609;SDS011;13479;49.044;8.716;2023-04-10T07:44:29;4.35;;;2.10;;
25609;SDS011;13479;49.044;8.716;2023-04-10T07:46:54;3.25;;;1.80;;
25609;SDS011;13479;49.044;8.716;2023-04-10T07:49:20;4.63;;;2.72;;
25609;SDS011;13479;49.044;8.716;2023-04-10T07:51:45;5.85;;;4.25;;
25609;SDS011;13479;49.044;8.716;2023-04-10T07:54:10;6.68;;;3.60;;
25609;SDS011;13479;49.044;8.716;2023-04-10T07:56:35;6.07;;;4.88;;
25609;SDS011;13479;49.044;8.716;2023-04-10T07:59:01;5.70;;;3.45;;
25609;SDS011;13479;49.044;8.716;2023-04-10T08:01:27;6.88;;;4.30;;
25609;SDS011;13479;49.044;8.716;2023-04-10T08:03:52;5.05;;;2.72;;
25609;SDS011;13479;49.044;8.716;2023-04-10T08:06:19;3.78;;;2.22;;
25609;SDS011;13479;49.044;8.716;2023-04-10T08:08:44;5.70;;;3.78;;
25609;SDS011;13479;49.044;8.716;2023-04-10T08:11:26;5.65;;;2.67;;
25609;SDS011;13479;49.044;8.716;2023-04-10T08:13:53;5.68;;;4.13;;
25609;SDS011;13479;49.044;8.716;2023-04-10T08:16:21;6.72;;;3.42;;
25609;SDS011;13479;49.044;8.716;2023-04-10T08:18:48;6.78;;;4.10;;
25609;SDS011;13479;49.044;8.716;2023-04-10T08:21:13;5.28;;;3.83;;
25609;SDS011;13479;49.044;8.716;2023-04-10T08:23:39;6.03;;;3.55;;
25609;SDS011;13479;49.044;8.716;2023-04-10T08:26:04;6.40;;;4.40;;
25609;SDS011;13479;49.044;8.716;2023-04-10T08:28:30;7.35;;;4.82;;
25609;SDS011;13479;49.044;8.716;2023-04-10T08:30:56;6.63;;;3.78;;
25609;SDS011;13479;49.044;8.716;2023-04-10T08:33:22;6.15;;;2.75;;
25609;SDS011;13479;49.044;8.716;2023-04-10T08:35:47;7.35;;;4.30;;
25609;SDS011;13479;49.044;8.716;2023-04-10T08:38:13;4.30;;;3.05;;
25609;SDS011;13479;49.044;8.716;2023-04-10T08:40:38;5.30;;;3.45;;
25609;SDS011;13479;49.044;8.716;2023-04-10T08:43:03;5.60;;;4.20;;
25609;SDS011;13479;49.044;8.716;2023-04-10T08:45:29;5.38;;;3.25;;
25609;SDS011;13479;49.044;8.716;2023-04-10T08:47:54;4.68;;;3.13;;
25609;SDS011;13479;49.044;8.716;2023-04-10T08:50:22;9.32;;;4.20;;
25609;SDS011;13479;49.044;8.716;2023-04-10T08:52:48;5.10;;;2.75;;
25609;SDS011;13479;49.044;8.716;2023-04-10T08:55:17;5.47;;;3.50;;
25609;SDS011;13479;49.044;8.716;2023-04-10T08:57:43;4.10;;;2.50;;
25609;SDS011;13479;49.044;8.716;2023-04-10T09:00:09;4.00;;;2.95;;
25609;SDS011;13479;49.044;8.716;2023-04-10T09:02:37;3.20;;;2.40;;
25609;SDS011;13479;49.044;8.716;2023-04-10T09:05:03;4.97;;;2.90;;
25609;SDS011;13479;49.044;8.716;2023-04-10T09:07:30;4.68;;;3.33;;
25609;SDS011;13479;49.044;8.716;2023-04-10T09:09:56;4.15;;;1.98;;
25609;SDS011;13479;49.044;8.716;2023-04-10T09:12:21;3.83;;;2.50;;
25609;SDS011;13479;49.044;8.716;2023-04-10T09:14:46;4.97;;;2.83;;
25609;SDS011;13479;49.044;8.716;2023-04-10T09:19:47;4.40;;;3.60;;
25609;SDS011;13479;49.044;8.716;2023-04-10T09:22:32;3.58;;;2.20;;
25609;SDS011;13479;49.044;8.716;2023-04-10T09:24:59;3.47;;;2.33;;
25609;SDS011;13479;49.044;8.716;2023-04-10T09:27:32;2.97;;;1.63;;
25609;SDS011;13479;49.044;8.716;2023-04-10T09:29:59;2.75;;;2.08;;
25609;SDS011;13479;49.044;8.716;2023-04-10T09:32:46;4.85;;;2.97;;
25609;SDS011;13479;49.044;8.716;2023-04-10T09:35:12;3.05;;;2.17;;
25609;SDS011;13479;49.044;8.716;2023-04-10T09:37:38;1.92;;;1.13;;
25609;SDS011;13479;49.044;8.716;2023-04-10T09:40:05;3.55;;;2.00;;
25609;SDS011;13479;49.044;8.716;2023-04-10T09:42:44;2.85;;;2.08;;
25609;SDS011;13479;49.044;8.716;2023-04-10T09:45:09;4.13;;;3.28;;
25609;SDS011;13479;49.044;8.716;2023-04-10T09:47:35;3.78;;;2.63;;
25609;SDS011;13479;49.044;8.716;2023-04-10T09:50:01;2.45;;;2.03;;
25609;SDS011;13479;49.044;8.716;2023-04-10T09:52:27;3.35;;;2.00;;
25609;SDS011;13479;49.044;8.716;2023-04-10T09:54:56;5.45;;;2.00;;
25609;SDS011;13479;49.044;8.716;2023-04-10T09:57:23;2.40;;;1.73;;
25609;SDS011;13479;49.044;8.716;2023-04-10T09:59:52;4.85;;;2.35;;
25609;SDS011;13479;49.044;8.716;2023-04-10T10:02:20;3.60;;;2.20;;
25609;SDS011;13479;49.044;8.716;2023-04-10T10:04:46;2.95;;;2.03;;
25609;SDS011;13479;49.044;8.716;2023-04-10T10:07:16;3.05;;;2.00;;
25609;SDS011;13479;49.044;8.716;2023-04-10T10:09:45;2.00;;;1.80;;
25609;SDS011;13479;49.044;8.716;2023-04-10T10:12:13;1.33;;;0.93;;
25609;SDS011;13479;49.044;8.716;2023-04-10T10:14:45;3.10;;;1.92;;
25609;SDS011;13479;49.044;8.716;2023-04-10T10:17:16;2.40;;;1.52;;
25609;SDS011;13479;49.044;8.716;2023-04-10T10:19:56;2.50;;;2.13;;
25609;SDS011;13479;49.044;8.716;2023-04-10T10:22:26;1.67;;;1.13;;
25609;SDS011;13479;49.044;8.716;2023-04-10T10:24:53;2.00;;;1.38;;
25609;SDS011;13479;49.044;8.716;2023-04-10T10:27:20;1.80;;;1.35;;
25609;SDS011;13479;49.044;8.716;2023-04-10T10:29:47;1.58;;;1.48;;
25609;SDS011;13479;49.044;8.716;2023-04-10T10:32:14;2.00;;;1.40;;
25609;SDS011;13479;49.044;8.716;2023-04-10T10:34:41;1.63;;;0.90;;
25609;SDS011;13479;49.044;8.716;2023-04-10T10:37:08;2.22;;;1.67;;
25609;SDS011;13479;49.044;8.716;2023-04-10T10:45:14;2.47;;;0.88;;
25609;SDS011;13479;49.044;8.716;2023-04-10T10:47:46;2.40;;;1.52;;
25609;SDS011;13479;49.044;8.716;2023-04-10T10:50:15;2.13;;;1.45;;
25609;SDS011;13479;49.044;8.716;2023-04-10T10:52:47;1.95;;;1.13;;
25609;SDS011;13479;49.044;8.716;2023-04-10T10:58:01;3.05;;;1.83;;
25609;SDS011;13479;49.044;8.716;2023-04-10T11:08:34;2.10;;;1.40;;
25609;SDS011;13479;49.044;8.716;2023-04-10T11:13:30;1.65;;;1.20;;
25609;SDS011;13479;49.044;8.716;2023-04-10T11:15:57;1.52;;;1.00;;
25609;SDS011;13479;49.044;8.716;2023-04-10T11:21:10;1.70;;;1.17;;
25609;SDS011;13479;49.044;8.716;2023-04-10T11:28:57;1.92;;;1.10;;
25609;SDS011;13479;49.044;8.716;2023-04-10T11:31:24;2.83;;;1.55;;
25609;SDS011;13479;49.044;8.716;2023-04-10T11:33:59;2.20;;;1.50;;
25609;SDS011;13479;49.044;8.716;2023-04-10T11:36:29;3.97;;;2.60;;
25609;SDS011;13479;49.044;8.716;2023-04-10T11:39:00;2.20;;;1.40;;
25609;SDS011;13479;49.044;8.716;2023-04-10T11:43:54;3.60;;;1.58;;
25609;SDS011;13479;49.044;8.716;2023-04-10T11:46:19;4.40;;;2.72;;
25609;SDS011;13479;49.044;8.716;2023-04-10T11:48:45;0.95;;;0.70;;
25609;SDS011;13479;49.044;8.716;2023-04-10T11:51:11;3.00;;;2.28;;
25609;SDS011;13479;49.044;8.716;2023-04-10T11:53:38;1.80;;;1.30;;
25609;SDS011;13479;49.044;8.716;2023-04-10T11:56:05;1.10;;;0.95;;
25609;SDS011;13479;49.044;8.716;2023-04-10T11:58:38;1.92;;;1.50;;
25609;SDS011;13479;49.044;8.716;2023-04-10T12:01:03;2.80;;;1.27;;
25609;SDS011;13479;49.044;8.716;2023-04-10T12:03:38;1.23;;;1.13;;
25609;SDS011;13479;49.044;8.716;2023-04-10T12:06:06;2.25;;;1.60;;
25609;SDS011;13479;49.044;8.716;2023-04-10T12:08:34;1.90;;;0.98;;
25609;SDS011;13479;49.044;8.716;2023-04-10T12:11:04;1.08;;;0.80;;
25609;SDS011;13479;49.044;8.716;2023-04-10T12:13:30;1.23;;;0.85;;
25609;SDS011;13479;49.044;8.716;2023-04-10T12:15:57;2.28;;;1.10;;
25609;SDS011;13479;49.044;8.716;2023-04-10T12:18:25;1.00;;;0.73;;
25609;SDS011;13479;49.044;8.716;2023-04-10T12:20:52;1.15;;;1.02;;
25609;SDS011;13479;49.044;8.716;2023-04-10T12:23:21;0.75;;;0.60;;
25609;SDS011;13479;49.044;8.716;2023-04-10T12:25:47;1.85;;;1.00;;
25609;SDS011;13479;49.044;8.716;2023-04-10T12:28:17;0.68;;;0.60;;
25609;SDS011;13479;49.044;8.716;2023-04-10T12:30:49;0.80;;;0.60;;
25609;SDS011;13479;49.044;8.716;2023-04-10T12:33:22;3.25;;;1.52;;
25609;SDS011;13479;49.044;8.716;2023-04-10T12:35:49;1.73;;;1.00;;
25609;SDS011;13479;49.044;8.716;2023-04-10T12:38:33;1.05;;;0.80;;
25609;SDS011;13479;49.044;8.716;2023-04-10T12:40:59;1.75;;;1.00;;
25609;SDS011;13479;49.044;8.716;2023-04-10T12:45:59;1.45;;;1.13;;
25609;SDS011;13479;49.044;8.716;2023-04-10T12:48:25;1.10;;;0.90;;
25609;SDS011;13479;49.044;8.716;2023-04-10T12:50:51;0.98;;;0.68;;
25609;SDS011;13479;49.044;8.716;2023-04-10T12:53:16;1.55;;;0.93;;
25609;SDS011;13479;49.044;8.716;2023-04-10T12:55:54;2.83;;;1.80;;
25609;SDS011;13479;49.044;8.716;2023-04-10T12:58:30;1.60;;;1.20;;
25609;SDS011;13479;49.044;8.716;2023-04-10T13:01:06;1.20;;;1.00;;
25609;SDS011;13479;49.044;8.716;2023-04-10T13:03:36;1.95;;;1.17;;
25609;SDS011;13479;49.044;8.716;2023-04-10T13:06:03;1.23;;;1.10;;
25609;SDS011;13479;49.044;8.716;2023-04-10T13:08:30;1.40;;;0.98;;
25609;SDS011;13479;49.044;8.716;2023-04-10T13:10:57;0.85;;;0.60;;
25609;SDS011;13479;49.044;8.716;2023-04-10T13:13:26;1.65;;;0.90;;
25609;SDS011;13479;49.044;8.716;2023-04-10T13:15:53;1.05;;;0.60;;
25609;SDS011;13479;49.044;8.716;2023-04-10T13:18:19;0.90;;;0.60;;
25609;SDS011;13479;49.044;8.716;2023-04-10T13:20:44;0.85;;;0.60;;
25609;SDS011;13479;49.044;8.716;2023-04-10T13:23:10;1.27;;;0.90;;
25609;SDS011;13479;49.044;8.716;2023-04-10T13:25:36;5.05;;;0.90;;
25609;SDS011;13479;49.044;8.716;2023-04-10T13:28:03;2.25;;;1.40;;
25609;SDS011;13479;49.044;8.716;2023-04-10T13:30:34;1.13;;;0.98;;
25609;SDS011;13479;49.044;8.716;2023-04-10T13:33:00;1.75;;;1.20;;
25609;SDS011;13479;49.044;8.716;2023-04-10T13:35:25;1.25;;;0.90;;
25609;SDS011;13479;49.044;8.716;2023-04-10T13:37:50;0.93;;;0.80;;
25609;SDS011;13479;49.044;8.716;2023-04-10T13:40:18;0.82;;;0.80;;
25609;SDS011;13479;49.044;8.716;2023-04-10T13:42:46;3.75;;;1.10;;
25609;SDS011;13479;49.044;8.716;2023-04-10T13:45:12;0.90;;;0.73;;
25609;SDS011;13479;49.044;8.716;2023-04-10T13:47:37;1.00;;;0.80;;
25609;SDS011;13479;49.044;8.716;2023-04-10T13:50:02;1.48;;;0.80;;
25609;SDS011;13479;49.044;8.716;2023-04-10T13:52:28;1.92;;;1.00;;
25609;SDS011;13479;49.044;8.716;2023-04-10T13:54:53;1.17;;;0.88;;
25609;SDS011;13479;49.044;8.716;2023-04-10T13:57:19;1.10;;;0.90;;
25609;SDS011;13479;49.044;8.716;2023-04-10T13:59:44;1.10;;;0.80;;
25609;SDS011;13479;49.044;8.716;2023-04-10T14:02:09;2.13;;;1.20;;
25609;SDS011;13479;49.044;8.716;2023-04-10T14:04:34;1.35;;;1.02;;
25609;SDS011;13479;49.044;8.716;2023-04-10T14:07:00;2.85;;;1.20;;
25609;SDS011;13479;49.044;8.716;2023-04-10T14:09:26;1.50;;;1.20;;
25609;SDS011;13479;49.044;8.716;2023-04-10T14:11:52;2.35;;;1.42;;
25609;SDS011;13479;49.044;8.716;2023-04-10T14:14:17;3.50;;;2.10;;
25609;SDS011;13479;49.044;8.716;2023-04-10T14:16:42;1.70;;;0.90;;
25609;SDS011;13479;49.044;8.716;2023-04-10T14:19:08;0.90;;;0.70;;
25609;SDS011;13479;49.044;8.716;2023-04-10T14:21:33;1.30;;;0.90;;
25609;SDS011;13479;49.044;8.716;2023-04-10T14:23:58;0.55;;;0.50;;
25609;SDS011;13479;49.044;8.716;2023-04-10T14:26:24;1.25;;;0.90;;
25609;SDS011;13479;49.044;8.716;2023-04-10T14:28:50;3.10;;;0.90;;
25609;SDS011;13479;49.044;8.716;2023-04-10T14:31:16;0.82;;;0.70;;
25609;SDS011;13479;49.044;8.716;2023-04-10T14:33:41;1.63;;;0.80;;
25609;SDS011;13479;49.044;8.716;2023-04-10T14:36:07;2.47;;;1.00;;
25609;SDS011;13479;49.044;8.716;2023-04-10T14:38:32;1.30;;;1.00;;
25609;SDS011;13479;49.044;8.716;2023-04-10T14:40:58;1.30;;;1.00;;
25609;SDS011;13479;49.044;8.716;2023-04-10T14:43:24;0.90;;;0.60;;
25609;SDS011;13479;49.044;8.716;2023-04-10T14:45:49;1.73;;;0.88;;
25609;SDS011;13479;49.044;8.716;2023-04-10T14:48:15;1.00;;;0.75;;
25609;SDS011;13479;49.044;8.716;2023-04-10T14:50:40;2.72;;;0.70;;
25609;SDS011;13479;49.044;8.716;2023-04-10T14:53:05;1.00;;;0.73;;
25609;SDS011;13479;49.044;8.716;2023-04-10T14:55:33;0.93;;;0.70;;
25609;SDS011;13479;49.044;8.716;2023-04-10T14:57:58;0.98;;;0.70;;
25609;SDS011;13479;49.044;8.716;2023-04-10T15:00:24;0.90;;;0.75;;
25609;SDS011;13479;49.044;8.716;2023-04-10T15:02:50;0.93;;;0.60;;
25609;SDS011;13479;49.044;8.716;2023-04-10T15:05:15;1.20;;;0.80;;
25609;SDS011;13479;49.044;8.716;2023-04-10T15:07:41;0.70;;;0.65;;
25609;SDS011;13479;49.044;8.716;2023-04-10T15:10:06;1.13;;;0.90;;
25609;SDS011;13479;49.044;8.716;2023-04-10T15:12:32;0.50;;;0.50;;
25609;SDS011;13479;49.044;8.716;2023-04-10T15:14:57;1.17;;;0.80;;
25609;SDS011;13479;49.044;8.716;2023-04-10T15:17:22;1.58;;;0.80;;
25609;SDS011;13479;49.044;8.716;2023-04-10T15:19:48;3.20;;;1.00;;
25609;SDS011;13479;49.044;8.716;2023-04-10T15:22:13;1.27;;;0.90;;
25609;SDS011;13479;49.044;8.716;2023-04-10T15:24:39;1.35;;;1.00;;
25609;SDS011;13479;49.044;8.716;2023-04-10T15:27:04;1.00;;;0.80;;
25609;SDS011;13479;49.044;8.716;2023-04-10T15:29:30;1.50;;;1.17;;
25609;SDS011;13479;49.044;8.716;2023-04-10T15:31:58;3.35;;;1.17;;
25609;SDS011;13479;49.044;8.716;2023-04-10T15:34:23;1.40;;;1.10;;
25609;SDS011;13479;49.044;8.716;2023-04-10T15:36:49;1.42;;;1.10;;
25609;SDS011;13479;49.044;8.716;2023-04-10T15:39:14;3.53;;;1.20;;
25609;SDS011;13479;49.044;8.716;2023-04-10T15:41:40;2.67;;;1.30;;
25609;SDS011;13479;49.044;8.716;2023-04-10T15:44:05;2.05;;;0.98;;
25609;SDS011;13479;49.044;8.716;2023-04-10T15:46:30;1.48;;;1.15;;
25609;SDS011;13479;49.044;8.716;2023-04-10T15:48:57;1.40;;;1.20;;
25609;SDS011;13479;49.044;8.716;2023-04-10T15:51:23;1.30;;;1.10;;
25609;SDS011;13479;49.044;8.716;2023-04-10T15:53:48;2.10;;;1.30;;
25609;SDS011;13479;49.044;8.716;2023-04-10T15:56:14;1.60;;;1.20;;
25609;SDS011;13479;49.044;8.716;2023-04-10T15:58:40;3.03;;;1.35;;
25609;SDS011;13479;49.044;8.716;2023-04-10T16:01:05;2.25;;;1.55;;
25609;SDS011;13479;49.044;8.716;2023-04-10T16:03:31;2.63;;;1.52;;
25609;SDS011;13479;49.044;8.716;2023-04-10T16:05:56;3.75;;;1.40;;
25609;SDS011;13479;49.044;8.716;2023-04-10T16:08:22;2.50;;;1.42;;
25609;SDS011;13479;49.044;8.716;2023-04-10T16:10:49;1.92;;;1.48;;
25609;SDS011;13479;49.044;8.716;2023-04-10T16:13:15;2.95;;;1.50;;
25609;SDS011;13479;49.044;8.716;2023-04-10T16:15:40;1.90;;;1.50;;
25609;SDS011;13479;49.044;8.716;2023-04-10T16:18:06;2.67;;;1.70;;
25609;SDS011;13479;49.044;8.716;2023-04-10T16:20:34;3.90;;;1.60;;
25609;SDS011;13479;49.044;8.716;2023-04-10T16:22:59;4.43;;;1.60;;
25609;SDS011;13479;49.044;8.716;2023-04-10T16:25:25;2.33;;;1.40;;
25609;SDS011;13479;49.044;8.716;2023-04-10T16:27:54;3.83;;;1.60;;
25609;SDS011;13479;49.044;8.716;2023-04-10T16:30:20;3.03;;;1.60;;
25609;SDS011;13479;49.044;8.716;2023-04-10T16:32:46;2.75;;;1.65;;
25609;SDS011;13479;49.044;8.716;2023-04-10T16:35:11;4.40;;;1.55;;
25609;SDS011;13479;49.044;8.716;2023-04-10T16:37:37;1.77;;;1.40;;
25609;SDS011;13479;49.044;8.716;2023-04-10T16:40:03;1.90;;;1.58;;
25609;SDS011;13479;49.044;8.716;2023-04-10T16:42:29;2.22;;;1.50;;
25609;SDS011;13479;49.044;8.716;2023-04-10T16:44:54;5.28;;;1.60;;
25609;SDS011;13479;49.044;8.716;2023-04-10T16:47:20;3.08;;;1.60;;
25609;SDS011;13479;49.044;8.716;2023-04-10T16:49:45;3.53;;;1.75;;
25609;SDS011;13479;49.044;8.716;2023-04-10T16:52:11;3.28;;;1.45;;
25609;SDS011;13479;49.044;8.716;2023-04-10T16:54:37;6.95;;;1.60;;
25609;SDS011;13479;49.044;8.716;2023-04-10T16:57:03;1.92;;;1.50;;
25609;SDS011;13479;49.044;8.716;2023-04-10T16:59:28;2.22;;;1.60;;
25609;SDS011;13479;49.044;8.716;2023-04-10T17:01:54;2.78;;;1.67;;
25609;SDS011;13479;49.044;8.716;2023-04-10T17:04:19;2.17;;;1.60;;
25609;SDS011;13479;49.044;8.716;2023-04-10T17:06:45;3.40;;;1.70;;
25609;SDS011;13479;49.044;8.716;2023-04-10T17:09:10;3.13;;;1.60;;
25609;SDS011;13479;49.044;8.716;2023-04-10T17:11:35;2.55;;;1.52;;
25609;SDS011;13479;49.044;8.716;2023-04-10T17:14:01;6.30;;;1.73;;
25609;SDS011;13479;49.044;8.716;2023-04-10T17:16:27;2.63;;;1.70;;
25609;SDS011;13479;49.044;8.716;2023-04-10T17:18:52;2.30;;;1.67;;
25609;SDS011;13479;49.044;8.716;2023-04-10T17:21:17;4.45;;;1.73;;
25609;SDS011;13479;49.044;8.716;2023-04-10T17:23:43;3.72;;;1.88;;
25609;SDS011;13479;49.044;8.716;2023-04-10T17:26:11;2.88;;;1.70;;
25609;SDS011;13479;49.044;8.716;2023-04-10T17:28:37;2.35;;;1.60;;
25609;SDS011;13479;49.044;8.716;2023-04-10T17:31:03;2.33;;;1.58;;
25609;SDS011;13479;49.044;8.716;2023-04-10T17:33:28;4.13;;;2.10;;
25609;SDS011;13479;49.044;8.716;2023-04-10T17:35:53;5.00;;;1.75;;
25609;SDS011;13479;49.044;8.716;2023-04-10T17:38:19;3.03;;;1.83;;
25609;SDS011;13479;49.044;8.716;2023-04-10T17:40:45;5.57;;;2.17;;
25609;SDS011;13479;49.044;8.716;2023-04-10T17:43:10;3.80;;;2.28;;
25609;SDS011;13479;49.044;8.716;2023-04-10T17:45:36;3.45;;;1.80;;
25609;SDS011;13479;49.044;8.716;2023-04-10T17:48:02;5.60;;;1.85;;
25609;SDS011;13479;49.044;8.716;2023-04-10T17:50:28;4.75;;;1.95;;
25609;SDS011;13479;49.044;8.716;2023-04-10T17:52:54;2.75;;;2.03;;
25609;SDS011;13479;49.044;8.716;2023-04-10T17:55:20;4.65;;;2.00;;
25609;SDS011;13479;49.044;8.716;2023-04-10T17:57:46;2.97;;;1.90;;
25609;SDS011;13479;49.044;8.716;2023-04-10T18:00:11;3.33;;;2.28;;
25609;SDS011;13479;49.044;8.716;2023-04-10T18:02:40;2.83;;;1.92;;
25609;SDS011;13479;49.044;8.716;2023-04-10T18:05:06;3.53;;;2.40;;
25609;SDS011;13479;49.044;8.716;2023-04-10T18:07:32;3.28;;;2.30;;
25609;SDS011;13479;49.044;8.716;2023-04-10T18:09:57;3.50;;;2.33;;
25609;SDS011;13479;49.044;8.716;2023-04-10T18:12:22;4.10;;;2.30;;
25609;SDS011;13479;49.044;8.716;2023-04-10T18:14:48;4.53;;;2.67;;
25609;SDS011;13479;49.044;8.716;2023-04-10T18:17:13;6.00;;;2.40;;
25609;SDS011;13479;49.044;8.716;2023-04-10T18:19:38;4.35;;;2.33;;
25609;SDS011;13479;49.044;8.716;2023-04-10T18:22:03;3.60;;;2.30;;
25609;SDS011;13479;49.044;8.716;2023-04-10T18:24:29;5.38;;;2.13;;
25609;SDS011;13479;49.044;8.716;2023-04-10T18:26:54;3.40;;;2.45;;
25609;SDS011;13479;49.044;8.716;2023-04-10T18:29:20;4.88;;;2.08;;
25609;SDS011;13479;49.044;8.716;2023-04-10T18:31:46;3.47;;;2.50;;
25609;SDS011;13479;49.044;8.716;2023-04-10T18:34:11;4.93;;;2.50;;
25609;SDS011;13479;49.044;8.716;2023-04-10T18:36:37;5.07;;;3.17;;
25609;SDS011;13479;49.044;8.716;2023-04-10T18:39:02;7.78;;;4.60;;
25609;SDS011;13479;49.044;8.716;2023-04-10T18:41:28;7.78;;;5.00;;
25609;SDS011;13479;49.044;8.716;2023-04-10T18:43:54;9.50;;;3.97;;
25609;SDS011;13479;49.044;8.716;2023-04-10T18:46:19;6.32;;;3.45;;
25609;SDS011;13479;49.044;8.716;2023-04-10T18:48:44;4.50;;;3.08;;
25609;SDS011;13479;49.044;8.716;2023-04-10T18:51:11;4.57;;;3.15;;
25609;SDS011;13479;49.044;8.716;2023-04-10T18:53:37;5.13;;;2.80;;
25609;SDS011;13479;49.044;8.716;2023-04-10T18:56:02;4.60;;;2.75;;
25609;SDS011;13479;49.044;8.716;2023-04-10T18:58:27;4.72;;;2.50;;
25609;SDS011;13479;49.044;8.716;2023-04-10T19:00:53;5.00;;;2.42;;
25609;SDS011;13479;49.044;8.716;2023-04-10T19:03:19;4.05;;;2.17;;
25609;SDS011;13479;49.044;8.716;2023-04-10T19:05:44;11.15;;;5.35;;
25609;SDS011;13479;49.044;8.716;2023-04-10T19:08:09;11.98;;;6.43;;
25609;SDS011;13479;49.044;8.716;2023-04-10T19:10:38;12.73;;;6.57;;
25609;SDS011;13479;49.044;8.716;2023-04-10T19:13:05;6.97;;;4.47;;
25609;SDS011;13479;49.044;8.716;2023-04-10T19:15:30;6.35;;;3.90;;